Time;durP1;ratioP1;P1;durP2;ratioP2;P2;SDS_P1;SDS_P2;PMS_P1;PMS_P2;Temp;Humidity;BMP_temperature;BMP_pressure;BME280_temperature;BME280_humidity;BME280_pressure;Samples;Min_cycle;Max_cycle;Signal;HPM_P1;HPM_P2
2023/04/19 00:00:51;;;;;;;15.40;11.13;;;8.70;98.00;;;;;;5084071;28;20102;-69
2023/04/19 00:03:16;;;;;;;13.82;10.68;;;8.70;98.00;;;;;;5081987;28;20103;-69
2023/04/19 00:05:42;;;;;;;16.15;12.15;;;8.70;98.00;;;;;;5084011;28;20416;-69
2023/04/19 00:08:10;;;;;;;15.90;11.70;;;8.70;98.00;;;;;;5080310;28;20362;-69
2023/04/19 00:10:39;;;;;;;14.82;11.13;;;8.80;98.00;;;;;;5085933;28;20063;-69
2023/04/19 00:13:05;;;;;;;15.82;11.45;;;8.70;98.00;;;;;;5077303;28;20029;-69
2023/04/19 00:15:31;;;;;;;15.30;11.55;;;8.70;98.00;;;;;;5079841;28;20032;-69
2023/04/19 00:17:56;;;;;;;14.70;11.00;;;8.70;98.00;;;;;;5081488;28;20038;-70
2023/04/19 00:20:22;;;;;;;13.98;10.80;;;8.70;98.00;;;;;;5086906;28;20452;-68
2023/04/19 00:22:47;;;;;;;13.65;10.30;;;8.70;98.00;;;;;;5081661;28;20028;-69
2023/04/19 00:25:13;;;;;;;15.93;12.40;;;8.70;98.00;;;;;;5083143;28;20127;-69
2023/04/19 00:27:39;;;;;;;18.38;13.80;;;8.70;98.00;;;;;;5085473;28;20039;-69
2023/04/19 00:30:05;;;;;;;17.40;12.55;;;8.70;98.00;;;;;;5083468;28;20056;-69
2023/04/19 00:32:30;;;;;;;17.52;13.48;;;8.70;98.00;;;;;;5079432;28;20329;-71
2023/04/19 00:34:56;;;;;;;19.08;13.93;;;8.60;98.00;;;;;;5080576;28;20028;-68
2023/04/19 00:37:21;;;;;;;17.75;13.50;;;8.60;98.00;;;;;;5088435;28;20028;-70
2023/04/19 00:39:47;;;;;;;16.27;12.20;;;8.60;97.90;;;;;;5083630;28;20111;-70
2023/04/19 00:42:15;;;;;;;17.25;13.27;;;8.50;97.50;;;;;;5077255;28;20306;-70
2023/04/19 00:44:41;;;;;;;16.60;12.48;;;8.50;97.10;;;;;;5088168;28;20032;-69
2023/04/19 00:47:07;;;;;;;17.10;12.40;;;8.50;96.50;;;;;;5089886;28;20683;-69
2023/04/19 00:49:33;;;;;;;18.33;13.43;;;8.50;96.00;;;;;;5083121;28;20202;-70
2023/04/19 00:51:58;;;;;;;17.73;13.20;;;8.40;95.10;;;;;;5087493;28;20032;-70
2023/04/19 00:54:24;;;;;;;18.13;12.80;;;8.30;94.00;;;;;;5085116;28;20024;-69
2023/04/19 00:56:50;;;;;;;17.55;13.40;;;8.30;93.90;;;;;;5093184;28;20463;-69
2023/04/19 00:59:17;;;;;;;18.35;14.00;;;8.30;93.60;;;;;;5078459;28;20462;-69
2023/04/19 01:01:42;;;;;;;17.65;13.50;;;8.30;95.10;;;;;;5084068;28;20420;-69
2023/04/19 01:04:08;;;;;;;17.80;13.27;;;8.30;94.80;;;;;;5078511;28;20028;-70
2023/04/19 01:06:35;;;;;;;19.95;14.10;;;8.30;94.00;;;;;;5081616;28;20039;-69
2023/04/19 01:09:01;;;;;;;17.48;13.00;;;8.30;94.40;;;;;;5080621;28;20073;-69
2023/04/19 01:11:27;;;;;;;17.80;13.38;;;8.30;95.20;;;;;;5085375;28;20036;-69
2023/04/19 01:13:54;;;;;;;18.85;14.15;;;8.30;94.30;;;;;;5080789;28;20493;-69
2023/04/19 01:16:20;;;;;;;20.10;14.98;;;8.30;94.60;;;;;;5084645;28;20329;-69
2023/04/19 01:18:45;;;;;;;20.15;13.43;;;8.30;95.40;;;;;;5081317;28;20025;-69
2023/04/19 01:21:11;;;;;;;18.40;14.50;;;8.30;94.50;;;;;;5076614;28;20360;-69
2023/04/19 01:23:38;;;;;;;19.58;14.45;;;8.30;93.90;;;;;;5077526;28;20020;-69
2023/04/19 01:26:04;;;;;;;17.77;12.93;;;8.30;93.50;;;;;;5093906;28;20027;-69
2023/04/19 01:28:29;;;;;;;19.65;14.85;;;8.30;93.30;;;;;;5085514;28;20421;-68
2023/04/19 01:30:55;;;;;;;19.55;14.02;;;8.30;92.90;;;;;;5080939;28;20078;-69
2023/04/19 01:33:21;;;;;;;20.92;15.15;;;8.20;92.60;;;;;;5076781;28;20416;-69
2023/04/19 01:35:47;;;;;;;20.73;15.88;;;8.20;92.90;;;;;;5080101;28;20314;-69
2023/04/19 01:38:14;;;;;;;21.55;16.55;;;8.20;92.40;;;;;;5077118;28;20409;-69
2023/04/19 01:40:39;;;;;;;22.42;16.83;;;8.10;91.80;;;;;;5077498;28;20016;-69
2023/04/19 01:43:06;;;;;;;22.52;15.90;;;8.10;91.90;;;;;;5077188;28;20522;-70
2023/04/19 01:45:32;;;;;;;23.23;16.85;;;8.10;91.80;;;;;;5077641;28;20035;-69
2023/04/19 01:48:00;;;;;;;24.73;17.10;;;8.10;91.80;;;;;;5080249;28;20486;-69
2023/04/19 01:50:26;;;;;;;23.70;17.52;;;8.10;91.90;;;;;;5086078;28;20068;-69
2023/04/19 01:52:51;;;;;;;19.27;15.18;;;8.10;92.20;;;;;;5076122;28;20090;-69
2023/04/19 01:55:17;;;;;;;23.73;17.58;;;8.10;91.50;;;;;;5086201;28;20025;-69
2023/04/19 01:57:43;;;;;;;23.83;17.88;;;8.10;91.70;;;;;;5082527;28;20055;-68
2023/04/19 02:00:09;;;;;;;22.10;16.60;;;8.00;91.80;;;;;;5094698;28;20047;-69
2023/04/19 02:02:36;;;;;;;21.00;15.82;;;8.00;91.30;;;;;;5085728;28;20372;-69
2023/04/19 02:05:03;;;;;;;25.15;18.17;;;8.00;90.00;;;;;;5092994;28;20036;-69
2023/04/19 02:07:28;;;;;;;25.15;18.00;;;8.00;90.30;;;;;;5093028;28;20485;-69
2023/04/19 02:09:54;;;;;;;26.15;18.55;;;8.00;90.10;;;;;;5080638;28;20024;-69
2023/04/19 02:12:19;;;;;;;27.73;19.42;;;8.00;90.30;;;;;;5087492;28;20062;-69
2023/04/19 02:14:45;;;;;;;23.63;17.23;;;7.90;90.30;;;;;;5081694;28;20024;-69
2023/04/19 02:17:11;;;;;;;22.42;16.67;;;7.80;89.60;;;;;;5093070;28;20024;-69
2023/04/19 02:19:36;;;;;;;22.95;17.58;;;7.90;89.60;;;;;;5080591;28;20069;-69
2023/04/19 02:22:02;;;;;;;24.67;18.38;;;7.80;89.40;;;;;;5092939;28;20050;-69
2023/04/19 02:24:28;;;;;;;24.50;17.48;;;7.80;89.10;;;;;;5076208;28;20060;-69
2023/04/19 02:26:53;;;;;;;21.77;16.80;;;7.80;88.20;;;;;;5079801;28;20054;-69
2023/04/19 02:29:19;;;;;;;22.63;17.63;;;7.90;88.40;;;;;;5076260;28;20408;-69
2023/04/19 02:31:45;;;;;;;24.02;17.13;;;7.90;89.40;;;;;;5088449;28;20027;-69
2023/04/19 02:34:11;;;;;;;28.13;19.00;;;7.90;89.20;;;;;;5077837;28;20028;-69
2023/04/19 02:36:37;;;;;;;23.90;17.70;;;7.90;90.00;;;;;;5080947;28;20104;-69
2023/04/19 02:39:04;;;;;;;28.38;18.27;;;7.80;89.30;;;;;;5080263;28;20028;-69
2023/04/19 02:41:30;;;;;;;23.45;17.38;;;7.80;89.20;;;;;;5075237;28;20131;-69
2023/04/19 02:43:55;;;;;;;29.50;19.77;;;7.80;89.00;;;;;;5077985;28;20445;-69
2023/04/19 02:46:21;;;;;;;25.20;18.42;;;7.80;89.20;;;;;;5081270;28;20024;-69
2023/04/19 02:48:49;;;;;;;26.10;18.58;;;7.80;88.80;;;;;;5079488;28;20052;-69
2023/04/19 02:51:16;;;;;;;25.20;18.23;;;7.80;88.50;;;;;;5082349;28;20035;-69
2023/04/19 02:53:41;;;;;;;25.17;18.48;;;7.80;89.20;;;;;;5086649;28;20168;-69
2023/04/19 02:56:10;;;;;;;24.45;17.98;;;7.70;89.00;;;;;;5084030;28;20036;-69
2023/04/19 02:58:38;;;;;;;28.33;19.98;;;7.70;88.50;;;;;;5085357;28;20048;-69
2023/04/19 03:01:04;;;;;;;25.88;19.17;;;7.80;88.70;;;;;;5082097;28;20055;-69
2023/04/19 03:03:29;;;;;;;29.58;20.95;;;7.80;88.80;;;;;;5085711;28;20052;-69
2023/04/19 03:05:55;;;;;;;29.33;21.08;;;7.80;89.60;;;;;;5075587;28;20027;-69
2023/04/19 03:08:21;;;;;;;27.85;20.20;;;7.80;90.00;;;;;;5077290;28;20032;-69
2023/04/19 03:10:46;;;;;;;26.83;20.35;;;7.80;90.40;;;;;;5085152;28;20028;-69
2023/04/19 03:13:12;;;;;;;26.67;18.73;;;7.70;90.30;;;;;;5077190;28;20332;-69
2023/04/19 03:15:37;;;;;;;29.65;19.90;;;7.70;90.30;;;;;;5083970;28;20154;-68
2023/04/19 03:18:03;;;;;;;25.75;19.02;;;7.70;89.40;;;;;;5084891;28;20406;-69
2023/04/19 03:20:28;;;;;;;26.10;19.70;;;7.70;89.50;;;;;;5075722;28;20320;-69
2023/04/19 03:22:54;;;;;;;27.15;20.10;;;7.60;89.30;;;;;;5082529;28;20028;-69
2023/04/19 03:25:19;;;;;;;29.15;20.83;;;7.60;89.50;;;;;;5085895;28;20053;-70
2023/04/19 03:27:46;;;;;;;30.30;20.90;;;7.50;88.80;;;;;;5078792;28;20028;-71
2023/04/19 03:30:12;;;;;;;29.40;21.00;;;7.50;89.20;;;;;;5075804;28;20034;-71
2023/04/19 03:32:38;;;;;;;32.75;21.60;;;7.50;89.00;;;;;;5081551;28;20020;-70
2023/04/19 03:35:04;;;;;;;28.83;21.02;;;7.50;88.50;;;;;;5081954;28;20021;-68
2023/04/19 03:37:29;;;;;;;30.05;20.27;;;7.50;88.80;;;;;;5086424;28;20144;-69
2023/04/19 03:39:55;;;;;;;26.60;19.17;;;7.60;88.80;;;;;;5088703;28;20107;-70
2023/04/19 03:42:21;;;;;;;27.50;20.70;;;7.60;88.90;;;;;;5088286;28;20425;-69
2023/04/19 03:44:52;;;;;;;31.08;20.08;;;7.70;89.30;;;;;;5081557;28;20054;-69
2023/04/19 03:47:18;;;;;;;27.52;20.05;;;7.60;88.90;;;;;;5083955;28;20044;-69
2023/04/19 03:49:43;;;;;;;26.70;19.52;;;7.60;88.50;;;;;;5090229;28;20468;-70
2023/04/19 03:52:09;;;;;;;26.30;19.30;;;7.60;89.00;;;;;;5092556;28;20325;-69
2023/04/19 03:54:34;;;;;;;32.78;21.20;;;7.60;88.50;;;;;;5084764;28;20346;-69
2023/04/19 03:57:00;;;;;;;26.60;19.55;;;7.60;88.70;;;;;;5089037;28;20021;-69
2023/04/19 03:59:26;;;;;;;29.65;21.05;;;7.50;88.30;;;;;;5076389;28;20049;-69
2023/04/19 04:01:51;;;;;;;33.42;22.48;;;7.50;88.10;;;;;;5076686;28;20035;-69
2023/04/19 04:04:17;;;;;;;30.63;21.10;;;7.50;87.50;;;;;;5091665;28;20036;-69
2023/04/19 04:06:42;;;;;;;33.15;23.08;;;7.40;86.10;;;;;;5083725;28;20020;-69
2023/04/19 04:09:08;;;;;;;29.60;20.23;;;7.30;85.60;;;;;;5082408;28;20433;-69
2023/04/19 04:11:34;;;;;;;28.20;20.10;;;7.40;85.00;;;;;;5077421;28;20402;-69
2023/04/19 04:13:59;;;;;;;33.53;23.38;;;7.40;85.00;;;;;;5078276;28;20021;-69
2023/04/19 04:16:25;;;;;;;33.17;22.70;;;7.40;85.80;;;;;;5076835;28;20385;-70
2023/04/19 04:18:50;;;;;;;30.65;21.42;;;7.50;85.40;;;;;;5076023;28;20032;-69
2023/04/19 04:21:19;;;;;;;28.48;20.17;;;7.50;85.90;;;;;;5084415;28;20032;-69
2023/04/19 04:23:46;;;;;;;30.95;21.95;;;7.50;86.30;;;;;;5077466;28;20062;-70
2023/04/19 04:26:12;;;;;;;33.83;22.13;;;7.50;87.00;;;;;;5081329;28;20032;-69
2023/04/19 04:28:38;;;;;;;32.80;22.23;;;7.60;87.40;;;;;;5075145;28;20447;-69
2023/04/19 04:31:04;;;;;;;27.90;19.10;;;7.60;88.00;;;;;;5081584;28;20059;-69
2023/04/19 04:33:30;;;;;;;28.58;18.73;;;7.60;87.60;;;;;;5086425;28;20313;-69
2023/04/19 04:35:57;;;;;;;33.53;21.48;;;7.60;87.80;;;;;;5076067;28;20046;-69
2023/04/19 04:38:23;;;;;;;29.20;20.80;;;7.50;87.40;;;;;;5087198;28;20352;-69
2023/04/19 04:40:53;;;;;;;31.75;22.35;;;7.50;86.40;;;;;;5095161;28;20042;-69
2023/04/19 04:43:20;;;;;;;32.55;21.63;;;7.50;87.30;;;;;;5085177;28;20020;-69
2023/04/19 04:45:46;;;;;;;30.80;21.23;;;7.40;86.70;;;;;;5075570;28;20036;-69
2023/04/19 04:48:12;;;;;;;35.00;22.88;;;7.40;86.20;;;;;;5077406;28;20036;-69
2023/04/19 04:50:38;;;;;;;33.22;23.92;;;7.40;85.90;;;;;;5077183;28;20362;-69
2023/04/19 04:53:04;;;;;;;34.05;23.85;;;7.40;86.70;;;;;;5078960;28;20031;-69
2023/04/19 04:55:29;;;;;;;32.85;23.40;;;7.40;87.50;;;;;;5080891;28;20077;-69
2023/04/19 04:57:55;;;;;;;31.10;22.48;;;7.40;87.50;;;;;;5088463;28;20181;-69
2023/04/19 05:00:21;;;;;;;32.03;21.50;;;7.50;87.30;;;;;;5080227;28;20475;-69
2023/04/19 05:02:47;;;;;;;32.33;23.52;;;7.50;87.40;;;;;;5074943;28;20086;-70
2023/04/19 05:05:13;;;;;;;32.25;22.55;;;7.50;87.40;;;;;;5079507;28;20032;-69
2023/04/19 05:07:40;;;;;;;32.03;23.25;;;7.50;87.90;;;;;;5080682;28;20058;-69
2023/04/19 05:10:08;;;;;;;32.42;22.25;;;7.50;87.90;;;;;;5078220;28;20389;-69
2023/04/19 05:12:33;;;;;;;36.30;24.20;;;7.60;87.90;;;;;;5081042;28;20040;-69
2023/04/19 05:14:59;;;;;;;34.47;24.08;;;7.50;87.10;;;;;;5075370;28;20337;-69
2023/04/19 05:17:24;;;;;;;35.85;24.70;;;7.50;86.60;;;;;;5077125;28;20021;-69
2023/04/19 05:19:50;;;;;;;37.55;25.40;;;7.40;85.70;;;;;;5075780;28;20445;-69
2023/04/19 05:22:16;;;;;;;36.35;25.20;;;7.40;84.50;;;;;;5075855;28;20413;-69
2023/04/19 05:24:41;;;;;;;38.38;25.70;;;7.40;84.40;;;;;;5077450;28;20391;-69
2023/04/19 05:27:08;;;;;;;35.20;26.00;;;7.40;84.70;;;;;;5085270;28;20224;-69
2023/04/19 05:29:33;;;;;;;39.47;26.83;;;7.30;84.20;;;;;;5087143;28;20049;-69
2023/04/19 05:31:59;;;;;;;37.13;24.95;;;7.30;84.80;;;;;;5086528;28;20025;-69
2023/04/19 05:34:25;;;;;;;41.30;26.90;;;7.30;84.60;;;;;;5073374;28;20032;-69
2023/04/19 05:36:51;;;;;;;37.83;26.67;;;7.40;84.40;;;;;;5081886;28;20036;-69
2023/04/19 05:39:16;;;;;;;36.53;25.98;;;7.40;85.50;;;;;;5085063;28;20028;-69
2023/04/19 05:41:42;;;;;;;33.97;24.85;;;7.50;85.20;;;;;;5090538;28;20061;-69
2023/04/19 05:44:08;;;;;;;37.50;26.20;;;7.60;85.50;;;;;;5080796;28;20443;-69
2023/04/19 05:46:34;;;;;;;39.33;26.25;;;7.60;87.50;;;;;;5091513;28;20024;-69
2023/04/19 05:49:01;;;;;;;34.60;25.85;;;7.60;87.00;;;;;;5082536;28;20317;-69
2023/04/19 05:51:27;;;;;;;40.10;27.55;;;7.70;87.20;;;;;;5079630;28;20024;-69
2023/04/19 05:53:55;;;;;;;35.10;25.27;;;7.70;87.60;;;;;;5091347;28;20024;-69
2023/04/19 05:56:21;;;;;;;31.10;22.70;;;7.80;88.20;;;;;;5093140;28;20039;-69
2023/04/19 05:58:46;;;;;;;30.85;22.48;;;8.00;88.00;;;;;;5088504;28;20035;-69
2023/04/19 06:01:12;;;;;;;32.45;22.55;;;8.00;90.10;;;;;;5079600;28;20020;-69
2023/04/19 06:03:38;;;;;;;36.25;24.80;;;8.10;90.40;;;;;;5099714;28;21057;-69
2023/04/19 06:06:06;;;;;;;32.05;23.40;;;8.30;91.80;;;;;;5078180;28;20085;-69
2023/04/19 06:08:32;;;;;;;30.58;22.70;;;8.30;92.70;;;;;;5079366;28;20059;-69
2023/04/19 06:10:59;;;;;;;36.92;25.42;;;8.20;92.40;;;;;;5073754;28;20352;-68
2023/04/19 06:13:24;;;;;;;31.70;22.27;;;8.30;93.00;;;;;;5092904;28;20107;-68
2023/04/19 06:15:50;;;;;;;35.53;26.20;;;8.40;93.00;;;;;;5081468;28;20373;-68
2023/04/19 06:18:15;;;;;;;32.50;23.73;;;8.30;94.40;;;;;;5089880;28;20093;-68
2023/04/19 06:20:41;;;;;;;31.02;22.27;;;8.30;92.80;;;;;;5087823;28;20024;-71
2023/04/19 06:23:07;;;;;;;30.65;22.95;;;8.30;92.70;;;;;;5088840;28;20115;-70
2023/04/19 06:25:32;;;;;;;31.92;23.60;;;8.40;93.50;;;;;;5092157;28;20066;-70
2023/04/19 06:27:58;;;;;;;36.22;24.10;;;8.40;93.70;;;;;;5089258;28;20028;-70
2023/04/19 06:30:23;;;;;;;32.92;23.17;;;8.40;93.10;;;;;;5079190;28;20436;-69
2023/04/19 06:32:49;;;;;;;32.25;23.42;;;8.50;94.30;;;;;;5096611;28;20032;-70
2023/04/19 06:35:15;;;;;;;36.45;24.48;;;8.50;94.40;;;;;;5099808;28;20021;-69
2023/04/19 06:37:40;;;;;;;31.00;22.48;;;8.60;95.30;;;;;;5095637;28;20078;-69
2023/04/19 06:40:07;;;;;;;33.15;22.60;;;8.60;95.40;;;;;;5092790;28;20028;-69
2023/04/19 06:42:36;;;;;;;32.40;22.13;;;8.60;95.90;;;;;;5090397;28;20074;-69
2023/04/19 06:45:02;;;;;;;28.92;21.15;;;8.70;95.30;;;;;;5096758;28;20468;-69
2023/04/19 06:47:31;;;;;;;26.67;20.00;;;8.90;96.70;;;;;;5097611;28;20035;-69
2023/04/19 06:49:56;;;;;;;27.77;19.38;;;9.00;96.90;;;;;;5082512;28;20443;-69
2023/04/19 06:52:22;;;;;;;28.77;21.58;;;9.20;97.30;;;;;;5097884;28;20032;-69
2023/04/19 06:54:51;;;;;;;29.70;20.35;;;9.20;98.00;;;;;;5098311;28;20137;-68
2023/04/19 06:57:17;;;;;;;28.73;20.50;;;9.10;97.90;;;;;;5099075;28;20043;-69
2023/04/19 06:59:43;;;;;;;29.55;21.08;;;9.10;97.40;;;;;;5098127;28;20348;-69
2023/04/19 07:02:09;;;;;;;29.33;21.45;;;9.10;97.20;;;;;;5098677;28;20388;-69
2023/04/19 07:04:35;;;;;;;26.88;20.10;;;9.10;97.40;;;;;;5100404;28;20047;-69
2023/04/19 07:07:01;;;;;;;33.33;21.52;;;9.20;98.00;;;;;;5098936;28;20460;-69
2023/04/19 07:09:27;;;;;;;28.38;21.55;;;9.20;98.00;;;;;;5090428;28;20110;-69
2023/04/19 07:11:53;;;;;;;29.50;20.05;;;9.10;97.70;;;;;;5081697;28;20099;-69
2023/04/19 07:14:19;;;;;;;28.38;21.02;;;9.10;97.60;;;;;;5078564;28;20021;-69
2023/04/19 07:16:45;;;;;;;29.65;20.23;;;9.20;98.00;;;;;;5087536;28;20017;-69
2023/04/19 07:19:11;;;;;;;24.58;19.20;;;9.20;98.00;;;;;;5081936;28;20096;-69
2023/04/19 07:21:38;;;;;;;28.52;20.65;;;9.30;98.00;;;;;;5078537;28;20033;-69
2023/04/19 07:24:05;;;;;;;28.15;19.23;;;9.30;98.00;;;;;;5078437;28;20027;-69
2023/04/19 07:26:32;;;;;;;29.10;20.48;;;9.40;98.00;;;;;;5077093;28;20474;-69
2023/04/19 07:28:58;;;;;;;25.67;19.17;;;9.40;98.00;;;;;;5077383;28;20027;-69
2023/04/19 07:31:24;;;;;;;28.63;19.77;;;9.30;98.00;;;;;;5076823;28;20091;-68
2023/04/19 07:33:51;;;;;;;25.92;19.77;;;9.20;98.00;;;;;;5079858;28;20813;-69
2023/04/19 07:36:17;;;;;;;33.00;22.95;;;9.10;98.00;;;;;;5078437;28;20024;-69
2023/04/19 07:38:42;;;;;;;27.95;19.63;;;9.10;98.00;;;;;;5078090;28;20024;-70
2023/04/19 07:41:08;;;;;;;30.48;21.45;;;8.90;97.90;;;;;;5078066;28;20035;-68
2023/04/19 07:43:34;;;;;;;30.65;21.73;;;9.00;98.00;;;;;;5077886;28;20021;-69
2023/04/19 07:46:00;;;;;;;27.48;20.90;;;9.00;97.70;;;;;;5092849;28;20068;-69
2023/04/19 07:48:26;;;;;;;28.60;21.35;;;9.00;97.90;;;;;;5088397;28;20032;-69
2023/04/19 07:50:52;;;;;;;31.00;22.33;;;8.90;98.00;;;;;;5077838;28;20036;-69
2023/04/19 07:53:17;;;;;;;30.38;21.73;;;8.90;98.00;;;;;;5078024;28;20020;-69
2023/04/19 07:55:43;;;;;;;25.77;19.17;;;8.80;98.00;;;;;;5087436;28;20074;-70
2023/04/19 07:58:10;;;;;;;28.90;21.25;;;8.90;97.80;;;;;;5077455;28;20037;-70
2023/04/19 08:00:36;;;;;;;28.67;20.77;;;9.00;98.00;;;;;;5083309;28;20024;-70
2023/04/19 08:03:02;;;;;;;33.10;22.15;;;9.00;97.90;;;;;;5079571;28;20336;-70
2023/04/19 08:05:28;;;;;;;27.08;19.73;;;9.00;98.00;;;;;;5078805;28;20322;-70
2023/04/19 08:07:55;;;;;;;29.90;21.90;;;9.00;97.60;;;;;;5083389;28;20417;-70
2023/04/19 08:10:21;;;;;;;29.23;20.60;;;9.00;97.40;;;;;;5096706;28;20269;-70
2023/04/19 08:12:46;;;;;;;30.92;21.65;;;9.10;97.90;;;;;;5088445;28;20024;-70
2023/04/19 08:15:12;;;;;;;31.23;22.42;;;9.10;98.00;;;;;;5076180;28;20095;-70
2023/04/19 08:17:39;;;;;;;27.70;20.00;;;9.10;98.00;;;;;;5079606;28;20062;-70
2023/04/19 08:20:06;;;;;;;27.98;20.02;;;9.10;97.90;;;;;;5079609;28;20029;-70
2023/04/19 08:22:31;;;;;;;29.83;20.10;;;9.30;98.00;;;;;;5080168;28;20428;-70
2023/04/19 08:24:57;;;;;;;26.85;18.73;;;9.60;98.00;;;;;;5078539;28;20077;-70
2023/04/19 08:27:26;;;;;;;23.45;17.67;;;9.80;98.00;;;;;;5080963;28;20025;-70
2023/04/19 08:29:51;;;;;;;24.75;17.33;;;10.00;98.00;;;;;;5084263;28;20154;-70
2023/04/19 08:32:17;;;;;;;26.15;18.23;;;10.10;98.00;;;;;;5077996;28;20119;-70
2023/04/19 08:34:42;;;;;;;23.65;16.17;;;10.50;98.00;;;;;;5097368;28;20137;-70
2023/04/19 08:37:08;;;;;;;31.58;22.30;;;10.60;98.00;;;;;;5086543;28;20017;-70
2023/04/19 08:39:34;;;;;;;28.17;19.58;;;10.60;97.90;;;;;;5079082;28;20032;-70
2023/04/19 08:42:05;;;;;;;26.90;19.52;;;10.40;98.00;;;;;;5075240;28;20142;-70
2023/04/19 08:44:32;;;;;;;26.58;19.40;;;10.50;98.00;;;;;;5078344;28;20362;-70
2023/04/19 08:47:05;;;;;;;28.95;21.00;;;10.40;98.00;;;;;;5084617;28;20032;-70
2023/04/19 08:49:34;;;;;;;29.53;20.93;;;10.50;98.00;;;;;;5075509;28;20070;-70
2023/04/19 08:52:01;;;;;;;29.42;21.83;;;10.60;98.00;;;;;;5075968;28;20032;-70
2023/04/19 08:54:34;;;;;;;31.20;21.95;;;10.30;98.00;;;;;;5080377;28;20019;-70
2023/04/19 08:57:00;;;;;;;29.58;21.25;;;10.20;98.00;;;;;;5089628;28;20028;-70
2023/04/19 08:59:27;;;;;;;26.52;19.67;;;10.30;98.00;;;;;;5093267;28;20113;-70
2023/04/19 09:01:55;;;;;;;33.10;21.77;;;10.10;98.00;;;;;;5080062;28;20050;-70
2023/04/19 09:04:23;;;;;;;29.25;19.92;;;10.10;98.00;;;;;;5090410;28;20355;-70
2023/04/19 09:06:49;;;;;;;29.38;20.23;;;9.90;98.00;;;;;;5095882;28;20111;-69
2023/04/19 09:09:24;;;;;;;24.45;19.58;;;10.10;98.00;;;;;;5087963;28;20107;-69
2023/04/19 09:11:49;;;;;;;27.25;18.83;;;10.40;98.00;;;;;;5077435;28;20081;-69
2023/04/19 09:14:16;;;;;;;23.38;17.65;;;11.00;98.00;;;;;;5089817;28;20028;-69
2023/04/19 09:16:43;;;;;;;27.25;18.80;;;11.40;97.10;;;;;;5082163;28;20462;-71
2023/04/19 09:19:09;;;;;;;31.58;20.98;;;11.60;96.20;;;;;;5089434;28;20028;-71
2023/04/19 09:21:35;;;;;;;25.35;18.70;;;11.50;96.00;;;;;;5102782;23;20059;-70
2023/04/19 09:24:02;;;;;;;22.10;17.65;;;11.00;97.10;;;;;;5095273;28;20050;-70
2023/04/19 09:26:34;;;;;;;22.00;16.48;;;11.40;96.80;;;;;;5098427;28;20031;-70
2023/04/19 09:29:05;;;;;;;19.25;15.43;;;12.00;95.20;;;;;;5094687;28;20047;-69
2023/04/19 09:31:33;;;;;;;20.15;14.65;;;12.40;94.20;;;;;;5095026;28;20081;-69
2023/04/19 09:34:13;;;;;;;24.80;16.95;;;12.30;93.60;;;;;;5096429;28;20420;-70
2023/04/19 09:36:42;;;;;;;21.92;15.07;;;12.10;93.20;;;;;;5095698;28;20024;-71
2023/04/19 09:39:07;;;;;;;18.38;14.75;;;11.60;95.10;;;;;;5094613;28;20020;-70
2023/04/19 09:41:34;;;;;;;20.38;15.82;;;12.00;94.80;;;;;;5128124;27;20319;-71
2023/04/19 09:44:14;;;;;;;20.92;14.85;;;12.40;93.50;;;;;;5095710;28;20016;-72
2023/04/19 09:46:45;;;;;;;19.52;14.38;;;12.20;92.80;;;;;;5093627;28;20024;-70
2023/04/19 09:49:16;;;;;;;17.02;12.98;;;12.30;92.60;;;;;;5094717;28;20056;-69
2023/04/19 09:51:50;;;;;;;17.52;12.02;;;12.80;92.60;;;;;;5095232;28;20028;-70
2023/04/19 09:54:18;;;;;;;18.63;14.07;;;13.30;89.30;;;;;;5095293;28;20081;-70
2023/04/19 09:56:45;;;;;;;17.23;13.35;;;13.00;89.00;;;;;;5094610;28;20028;-70
2023/04/19 09:59:11;;;;;;;16.67;12.30;;;12.30;91.60;;;;;;5095996;28;20435;-70
2023/04/19 10:01:44;;;;;;;17.48;11.95;;;12.30;91.50;;;;;;5094614;28;20036;-70
2023/04/19 10:04:12;;;;;;;17.15;13.10;;;12.40;90.70;;;;;;5096251;28;20036;-70
2023/04/19 10:06:41;;;;;;;18.20;13.32;;;12.10;91.80;;;;;;5093892;28;20028;-70
2023/04/19 10:09:07;;;;;;;18.48;13.55;;;11.80;92.70;;;;;;5097240;28;20102;-70
2023/04/19 10:11:38;;;;;;;20.83;15.55;;;11.90;92.00;;;;;;5094565;28;20103;-70
2023/04/19 10:14:08;;;;;;;21.10;14.43;;;11.90;91.60;;;;;;5095086;28;20024;-70
2023/04/19 10:16:36;;;;;;;19.17;13.75;;;11.80;92.30;;;;;;5096232;28;20020;-70
2023/04/19 10:19:04;;;;;;;18.88;12.73;;;11.90;93.10;;;;;;5095366;28;20027;-70
2023/04/19 10:21:31;;;;;;;17.95;13.25;;;12.30;91.60;;;;;;5093882;28;20503;-70
2023/04/19 10:23:58;;;;;;;23.55;15.13;;;12.60;91.20;;;;;;5095558;28;20336;-70
2023/04/19 10:26:23;;;;;;;22.40;14.68;;;12.60;90.50;;;;;;5098717;28;20385;-70
2023/04/19 10:28:49;;;;;;;18.58;13.85;;;13.00;90.20;;;;;;5094703;28;20074;-70
2023/04/19 10:31:22;;;;;;;18.85;14.15;;;13.10;89.90;;;;;;5090666;28;20036;-70
2023/04/19 10:33:50;;;;;;;17.73;13.10;;;12.80;90.20;;;;;;5095033;28;20074;-70
2023/04/19 10:36:16;;;;;;;21.42;14.75;;;12.70;90.40;;;;;;5094052;28;20332;-70
2023/04/19 10:38:48;;;;;;;20.38;14.25;;;12.60;89.90;;;;;;5093651;28;20458;-70
2023/04/19 10:41:18;;;;;;;18.35;12.95;;;12.30;90.80;;;;;;5098025;28;20333;-70
2023/04/19 10:43:44;;;;;;;21.75;13.60;;;12.20;91.60;;;;;;5095712;28;20024;-70
2023/04/19 10:46:23;;;;;;;20.77;13.55;;;12.50;90.90;;;;;;5093843;28;20326;-70
2023/04/19 10:48:58;;;;;;;17.88;13.55;;;12.70;90.00;;;;;;5095065;28;20060;-70
2023/04/19 10:51:41;;;;;;;19.52;14.30;;;12.80;90.60;;;;;;5093579;28;20334;-70
2023/04/19 10:54:29;;;;;;;18.85;12.80;;;13.10;90.70;;;;;;5094846;28;20036;-70
2023/04/19 10:57:03;;;;;;;17.77;12.90;;;13.70;87.90;;;;;;5093225;28;20344;-70
2023/04/19 10:59:33;;;;;;;18.98;12.95;;;14.30;86.00;;;;;;5095833;28;20405;-70
2023/04/19 11:02:02;;;;;;;19.95;13.00;;;14.60;85.30;;;;;;5090182;28;20127;-70
2023/04/19 11:04:30;;;;;;;18.63;13.93;;;14.60;85.60;;;;;;5083637;28;20059;-70
2023/04/19 11:07:00;;;;;;;18.77;13.75;;;14.80;85.10;;;;;;5112657;28;20784;-70
2023/04/19 11:09:37;;;;;;;16.00;12.35;;;14.20;85.60;;;;;;5118996;28;20030;-70
2023/04/19 11:12:07;;;;;;;19.58;12.93;;;14.50;85.80;;;;;;5096471;28;20031;-70
2023/04/19 11:14:35;;;;;;;18.77;13.50;;;14.40;84.60;;;;;;5101243;28;20872;-70
2023/04/19 11:17:13;;;;;;;18.15;13.25;;;14.20;85.70;;;;;;5088048;28;20436;-70
2023/04/19 11:20:01;;;;;;;18.80;13.88;;;13.60;87.10;;;;;;5093535;28;21235;-70
2023/04/19 11:22:38;;;;;;;17.80;13.25;;;13.30;88.80;;;;;;5089199;28;20056;-70
2023/04/19 11:25:15;;;;;;;19.23;12.98;;;13.00;88.80;;;;;;5097502;28;20103;-70
2023/04/19 11:27:41;;;;;;;20.02;13.50;;;12.90;89.50;;;;;;5097861;28;20039;-69
2023/04/19 11:30:15;;;;;;;18.15;12.98;;;12.90;89.80;;;;;;5097478;28;20035;-70
2023/04/19 11:32:49;;;;;;;19.80;13.68;;;13.30;89.10;;;;;;5096750;28;20028;-70
2023/04/19 11:35:21;;;;;;;18.35;14.07;;;13.10;89.00;;;;;;5097603;28;20033;-70
2023/04/19 11:37:47;;;;;;;17.35;12.77;;;13.00;89.50;;;;;;5097496;28;20058;-70
2023/04/19 11:40:17;;;;;;;18.67;12.85;;;13.40;89.50;;;;;;5096011;28;20032;-70
2023/04/19 11:42:44;;;;;;;17.75;12.32;;;13.60;87.70;;;;;;5093443;28;20034;-70
2023/04/19 11:45:10;;;;;;;16.90;11.75;;;13.40;86.60;;;;;;5092371;28;20058;-70
2023/04/19 11:47:49;;;;;;;13.88;10.40;;;13.60;87.30;;;;;;5098369;28;20036;-70
2023/04/19 11:50:41;;;;;;;14.35;10.63;;;13.80;86.90;;;;;;5097428;28;20036;-69
2023/04/19 11:53:16;;;;;;;15.50;10.90;;;13.90;84.60;;;;;;5096808;28;20036;-70
2023/04/19 11:55:47;;;;;;;13.77;9.60;;;14.10;85.30;;;;;;5098145;28;20032;-70
2023/04/19 11:58:31;;;;;;;14.27;10.02;;;14.90;84.20;;;;;;5097275;28;20020;-70
2023/04/19 12:01:12;;;;;;;12.40;9.02;;;15.80;81.10;;;;;;5091896;28;20027;-70
2023/04/19 12:03:45;;;;;;;14.90;9.93;;;15.80;79.20;;;;;;5096232;28;20030;-69
2023/04/19 12:06:16;;;;;;;13.27;9.38;;;15.00;79.90;;;;;;5098052;28;20032;-69
2023/04/19 12:08:47;;;;;;;11.52;8.18;;;14.80;80.80;;;;;;5096596;28;20039;-69
2023/04/19 12:11:13;;;;;;;11.98;8.82;;;15.20;81.40;;;;;;5097729;28;20024;-69
2023/04/19 12:13:39;;;;;;;13.45;9.52;;;15.60;79.70;;;;;;5095412;28;20042;-71
2023/04/19 12:16:08;;;;;;;18.17;9.98;;;15.10;79.90;;;;;;5095140;28;20032;-70
2023/04/19 12:18:50;;;;;;;13.80;10.55;;;14.60;82.40;;;;;;5096876;28;20028;-70
2023/04/19 12:21:31;;;;;;;15.18;10.55;;;13.90;83.60;;;;;;5095823;28;20036;-70
2023/04/19 12:23:58;;;;;;;12.63;9.93;;;13.80;85.80;;;;;;5097691;28;20404;-70
2023/04/19 12:26:27;;;;;;;15.88;10.98;;;14.00;84.70;;;;;;5096654;28;20107;-71
2023/04/19 12:28:56;;;;;;;15.80;10.25;;;13.80;84.40;;;;;;5095913;28;20101;-70
2023/04/19 12:31:22;;;;;;;14.43;9.93;;;13.50;85.80;;;;;;5094466;28;20031;-70
2023/04/19 12:33:48;;;;;;;13.88;10.35;;;13.90;85.30;;;;;;5097212;28;20032;-71